createdAt,value
2022-10-28T00:01:04.056Z,12.83
2022-10-28T00:03:31.223Z,12.82
2022-10-28T00:06:03.617Z,12.82
2022-10-28T00:08:31.665Z,12.81
2022-10-28T00:11:12.347Z,12.76
2022-10-28T00:13:40.507Z,12.73
2022-10-28T00:16:13.886Z,12.72
2022-10-28T00:18:42.087Z,12.73
2022-10-28T00:21:12.624Z,12.78
2022-10-28T00:23:40.343Z,12.77
2022-10-28T00:26:16.874Z,12.79
2022-10-28T00:28:46.676Z,12.80
2022-10-28T00:31:16.219Z,12.79
2022-10-28T00:33:43.873Z,12.77
2022-10-28T00:36:20.753Z,12.82
2022-10-28T00:38:50.650Z,12.81
2022-10-28T00:41:20.613Z,12.79
2022-10-28T00:43:51.430Z,12.80
2022-10-28T00:46:32.650Z,12.82
2022-10-28T00:49:04.342Z,12.77
2022-10-28T00:51:35.516Z,12.79
2022-10-28T00:54:05.385Z,12.77
2022-10-28T00:56:36.944Z,12.75
2022-10-28T00:59:09.407Z,12.74
2022-10-28T01:01:36.839Z,12.71
2022-10-28T01:04:04.175Z,12.66
2022-10-28T01:06:31.526Z,12.65
2022-10-28T01:09:00.108Z,12.64
2022-10-28T01:11:35.242Z,12.66
2022-10-28T01:14:10.175Z,12.57
2022-10-28T01:16:55.141Z,12.53
2022-10-28T01:19:43.797Z,12.52
2022-10-28T01:22:21.090Z,12.46
2022-10-28T01:25:09.836Z,12.40
2022-10-28T01:28:04.523Z,12.35
2022-10-28T01:31:08.981Z,12.35
2022-10-28T01:33:39.988Z,12.32
2022-10-28T01:36:12.754Z,12.27
2022-10-28T01:38:47.279Z,12.26
2022-10-28T01:41:33.506Z,12.22
2022-10-28T01:44:06.898Z,12.17
2022-10-28T01:46:56.673Z,12.17
2022-10-28T01:49:32.322Z,12.18
2022-10-28T01:52:03.660Z,12.20
2022-10-28T01:54:34.095Z,12.18
2022-10-28T01:57:04.299Z,12.21
2022-10-28T01:59:34.266Z,12.22
2022-10-28T02:04:33.399Z,12.22
2022-10-28T02:07:01.238Z,12.20
2022-10-28T02:09:28.275Z,12.20
2022-10-28T02:12:07.548Z,12.14
2022-10-28T02:14:59.050Z,12.16
2022-10-28T02:17:38.394Z,12.15
2022-10-28T02:20:22.971Z,12.12
2022-10-28T02:22:58.932Z,12.10
2022-10-28T02:25:32.938Z,12.14
2022-10-28T02:28:06.378Z,12.11
2022-10-28T02:30:37.173Z,12.14
2022-10-28T02:33:10.479Z,12.10
2022-10-28T02:35:40.911Z,12.10
2022-10-28T02:38:14.154Z,12.11
2022-10-28T02:40:46.080Z,12.07
2022-10-28T02:43:17.827Z,12.06
2022-10-28T02:45:48.684Z,11.97
2022-10-28T02:48:36.671Z,11.96
2022-10-28T02:51:32.579Z,11.97
2022-10-28T02:54:06.027Z,11.92
2022-10-28T02:56:40.045Z,11.93
2022-10-28T02:59:12.375Z,11.85
2022-10-28T03:01:40.339Z,11.86
2022-10-28T03:04:07.795Z,11.79
2022-10-28T03:06:34.894Z,11.70
2022-10-28T03:09:02.052Z,11.67
2022-10-28T03:11:29.176Z,11.66
2022-10-28T03:13:56.313Z,11.63
2022-10-28T03:16:23.575Z,11.60
2022-10-28T03:18:50.715Z,11.61
2022-10-28T03:21:17.873Z,11.54
2022-10-28T03:23:44.961Z,11.55
2022-10-28T03:26:12.093Z,11.56
2022-10-28T03:28:39.224Z,11.57
2022-10-28T03:31:06.354Z,11.53
2022-10-28T03:33:33.513Z,11.52
2022-10-28T03:36:00.701Z,11.50
2022-10-28T03:38:27.800Z,11.51
2022-10-28T03:40:55.021Z,11.54
2022-10-28T03:43:22.164Z,11.54
2022-10-28T03:45:49.362Z,11.54
2022-10-28T03:48:16.481Z,11.51
2022-10-28T03:50:43.610Z,11.47
2022-10-28T03:53:10.781Z,11.50
2022-10-28T03:55:37.939Z,11.46
2022-10-28T03:58:05.073Z,11.41
2022-10-28T04:00:32.231Z,11.40
2022-10-28T04:02:59.334Z,11.40
2022-10-28T04:05:26.427Z,11.41
2022-10-28T04:07:54.127Z,11.39
2022-10-28T04:10:21.383Z,11.39
2022-10-28T04:12:48.466Z,11.39
2022-10-28T04:15:15.583Z,11.31
2022-10-28T04:17:42.723Z,11.34
2022-10-28T04:20:10.103Z,11.35
2022-10-28T04:22:37.251Z,11.32
2022-10-28T04:25:04.894Z,11.33
2022-10-28T04:27:32.056Z,11.31
2022-10-28T04:29:59.211Z,11.33
2022-10-28T04:32:26.345Z,11.33
2022-10-28T04:34:53.475Z,11.30
2022-10-28T04:37:20.821Z,11.24
2022-10-28T04:39:48.273Z,11.26
2022-10-28T04:42:16.727Z,11.29
2022-10-28T04:44:43.810Z,11.25
2022-10-28T04:47:10.931Z,11.27
2022-10-28T04:49:38.903Z,11.28
2022-10-28T04:52:06.298Z,11.25
2022-10-28T04:54:33.508Z,11.29
2022-10-28T04:57:00.623Z,11.28
2022-10-28T04:59:27.950Z,11.27
2022-10-28T05:01:55.166Z,11.30
2022-10-28T05:04:22.398Z,11.32
2022-10-28T05:06:49.762Z,11.28
2022-10-28T05:09:16.889Z,11.24
2022-10-28T05:11:44.207Z,11.22
2022-10-28T05:14:11.289Z,11.26
2022-10-28T05:16:38.387Z,11.24
2022-10-28T05:19:05.496Z,11.21
2022-10-28T05:21:32.672Z,11.21
2022-10-28T05:23:59.767Z,11.23
2022-10-28T05:26:26.884Z,11.21
2022-10-28T05:28:54.006Z,11.24
2022-10-28T05:31:21.094Z,11.24
2022-10-28T05:33:48.203Z,11.28
2022-10-28T05:36:15.343Z,11.23
2022-10-28T05:38:45.315Z,11.23
2022-10-28T05:41:12.675Z,11.24
2022-10-28T05:43:39.821Z,11.22
2022-10-28T05:46:06.938Z,11.24
2022-10-28T05:48:34.137Z,11.23
2022-10-28T05:51:01.283Z,11.25
2022-10-28T05:53:28.382Z,11.29
2022-10-28T05:55:55.462Z,11.25
2022-10-28T05:58:22.547Z,11.25
2022-10-28T06:00:49.712Z,11.18
2022-10-28T06:03:16.948Z,11.21
2022-10-28T06:05:45.661Z,11.22
2022-10-28T06:08:13.504Z,11.26
2022-10-28T06:10:41.662Z,11.33
2022-10-28T06:13:08.080Z,11.36
2022-10-28T06:15:35.200Z,11.37
2022-10-28T06:18:02.400Z,11.35
2022-10-28T06:20:29.491Z,11.38
2022-10-28T06:22:56.672Z,11.46
2022-10-28T06:25:25.218Z,11.46
2022-10-28T06:27:56.707Z,11.48
2022-10-28T06:30:25.953Z,11.49
2022-10-28T06:32:56.267Z,11.59
2022-10-28T06:35:23.507Z,11.60
2022-10-28T06:37:56.937Z,11.69
2022-10-28T06:40:25.124Z,11.85
2022-10-28T06:43:03.963Z,11.94
2022-10-28T06:45:32.982Z,12.04
2022-10-28T06:48:04.321Z,12.08
2022-10-28T06:50:33.731Z,12.18
2022-10-28T06:53:01.119Z,12.23
2022-10-28T06:55:28.900Z,12.29
2022-10-28T06:58:00.805Z,12.35
2022-10-28T07:03:02.173Z,12.55
2022-10-28T07:05:29.502Z,12.64
2022-10-28T07:07:56.947Z,12.73
2022-10-28T07:10:24.123Z,12.85
2022-10-28T07:12:53.296Z,12.91
2022-10-28T07:15:20.896Z,13.00
2022-10-28T07:17:59.129Z,13.15
2022-10-28T07:20:27.904Z,13.26
2022-10-28T07:23:02.421Z,13.36
2022-10-28T07:25:30.795Z,13.47
2022-10-28T07:27:59.167Z,13.55
2022-10-28T07:30:28.091Z,13.68
2022-10-28T07:32:55.898Z,13.82
2022-10-28T07:35:23.361Z,13.97
2022-10-28T07:37:50.483Z,14.11
2022-10-28T07:40:17.994Z,14.26
2022-10-28T07:42:45.206Z,14.41
2022-10-28T07:45:12.593Z,14.54
2022-10-28T07:47:39.957Z,14.73
2022-10-28T07:50:08.209Z,14.88
2022-10-28T07:52:36.763Z,14.99
2022-10-28T07:55:05.722Z,15.22
2022-10-28T07:57:34.923Z,15.35
2022-10-28T08:00:02.298Z,15.47
2022-10-28T08:02:38.003Z,15.68
2022-10-28T08:05:05.727Z,15.82
2022-10-28T08:07:36.212Z,16.07
2022-10-28T08:10:07.388Z,16.24
2022-10-28T08:12:34.536Z,16.30
2022-10-28T08:15:02.631Z,16.48
2022-10-28T08:17:30.260Z,16.61
2022-10-28T08:19:57.951Z,16.74
2022-10-28T08:22:25.195Z,16.89
2022-10-28T08:24:52.299Z,17.00
2022-10-28T08:27:19.411Z,17.08
2022-10-28T08:29:46.700Z,17.22
2022-10-28T08:32:13.955Z,17.36
2022-10-28T08:34:43.552Z,17.48
2022-10-28T08:37:11.171Z,17.52
2022-10-28T08:39:38.335Z,17.57
2022-10-28T08:42:22.596Z,17.70
2022-10-28T08:45:02.972Z,17.71
2022-10-28T08:47:38.828Z,17.78
2022-10-28T08:50:13.528Z,17.86
2022-10-28T08:52:50.709Z,17.95
2022-10-28T08:55:44.386Z,18.07
2022-10-28T08:58:25.289Z,18.28
2022-10-28T09:00:59.980Z,18.19
2022-10-28T09:03:33.284Z,18.30
2022-10-28T09:06:05.509Z,18.51
2022-10-28T09:08:51.769Z,18.62
2022-10-28T09:11:27.192Z,18.65
2022-10-28T09:14:19.122Z,18.82
2022-10-28T09:16:49.133Z,18.88
2022-10-28T09:19:37.451Z,18.88
2022-10-28T09:22:39.225Z,18.93
2022-10-28T09:25:48.639Z,19.00
2022-10-28T09:28:24.617Z,19.08
2022-10-28T09:31:08.465Z,19.26
2022-10-28T09:33:35.562Z,19.32
2022-10-28T09:36:11.132Z,19.56
2022-10-28T09:38:38.993Z,19.61
2022-10-28T09:41:36.341Z,19.77
2022-10-28T09:44:15.515Z,19.72
2022-10-28T09:46:46.904Z,19.79
2022-10-28T09:49:41.060Z,19.84
2022-10-28T09:52:16.191Z,19.84
2022-10-28T09:54:51.476Z,20.01
2022-10-28T09:57:20.448Z,19.88
2022-10-28T09:59:47.776Z,19.79
2022-10-28T10:02:27.061Z,19.85
2022-10-28T10:04:59.832Z,20.10
2022-10-28T10:07:37.518Z,20.06
2022-10-28T10:10:17.881Z,20.47
2022-10-28T10:12:48.693Z,20.60
2022-10-28T10:15:32.707Z,20.59
2022-10-28T10:18:02.242Z,20.54
2022-10-28T10:20:55.880Z,20.78
2022-10-28T10:23:30.362Z,20.92
2022-10-28T10:26:01.562Z,20.94
2022-10-28T10:28:29.537Z,21.24
2022-10-28T10:30:59.217Z,21.17
2022-10-28T10:33:34.602Z,21.20
2022-10-28T10:36:14.281Z,21.19
2022-10-28T10:38:50.661Z,21.32
2022-10-28T10:41:35.369Z,21.44
2022-10-28T10:44:25.479Z,21.58
2022-10-28T10:47:03.453Z,21.71
2022-10-28T10:49:35.127Z,21.63
2022-10-28T10:52:07.832Z,21.73
2022-10-28T10:54:37.481Z,21.59
2022-10-28T10:57:09.697Z,21.61
2022-10-28T10:59:37.903Z,21.73
2022-10-28T11:02:22.683Z,21.82
2022-10-28T11:04:59.597Z,21.67
2022-10-28T11:07:28.291Z,21.49
2022-10-28T11:09:55.791Z,21.62
2022-10-28T11:12:35.593Z,21.85
2022-10-28T11:15:16.397Z,21.89
2022-10-28T11:17:58.586Z,22.12
2022-10-28T11:20:31.072Z,22.15
2022-10-28T11:23:00.826Z,21.92
2022-10-28T11:25:38.398Z,22.07
2022-10-28T11:28:28.950Z,22.08
2022-10-28T11:33:50.756Z,22.18
2022-10-28T11:36:34.239Z,22.10
2022-10-28T11:39:13.582Z,22.17
2022-10-28T11:41:56.522Z,22.19
2022-10-28T11:44:47.949Z,22.35
2022-10-28T11:47:36.961Z,22.40
2022-10-28T11:50:22.059Z,22.50
2022-10-28T11:53:10.177Z,22.42
2022-10-28T11:55:50.408Z,22.42
2022-10-28T11:58:48.609Z,22.49
2022-10-28T12:01:31.711Z,22.58
2022-10-28T12:04:25.606Z,22.89
2022-10-28T12:07:04.699Z,22.76
2022-10-28T12:10:02.496Z,22.77
2022-10-28T12:12:47.236Z,22.76
2022-10-28T12:15:51.850Z,22.68
2022-10-28T12:18:49.117Z,22.89
2022-10-28T12:21:27.527Z,22.97
2022-10-28T12:23:58.188Z,22.77
2022-10-28T12:26:44.069Z,22.55
2022-10-28T12:29:27.935Z,22.45
2022-10-28T12:32:00.044Z,22.51
2022-10-28T12:34:47.823Z,22.51
2022-10-28T12:37:28.420Z,22.57
2022-10-28T12:40:14.156Z,22.41
2022-10-28T12:42:48.759Z,22.53
2022-10-28T12:45:18.525Z,22.47
2022-10-28T12:47:55.796Z,22.57
2022-10-28T12:50:40.993Z,22.45
2022-10-28T12:53:43.978Z,22.47
2022-10-28T12:56:19.956Z,22.26
2022-10-28T12:59:11.029Z,22.36
2022-10-28T13:01:38.483Z,22.22
2022-10-28T13:04:05.912Z,21.99
2022-10-28T13:06:57.637Z,22.05
2022-10-28T13:09:37.881Z,22.08
2022-10-28T13:12:15.803Z,22.05
2022-10-28T13:15:16.942Z,22.11
2022-10-28T13:18:11.258Z,22.33
2022-10-28T13:21:07.044Z,22.36
2022-10-28T13:23:47.402Z,22.38
2022-10-28T13:26:32.562Z,22.60
2022-10-28T13:29:04.069Z,22.68
2022-10-28T13:31:45.254Z,22.57
2022-10-28T13:34:16.276Z,22.64
2022-10-28T13:36:57.522Z,22.59
2022-10-28T13:39:27.740Z,22.50
2022-10-28T13:42:13.057Z,22.41
2022-10-28T13:45:03.505Z,22.21
2022-10-28T13:47:31.854Z,22.12
2022-10-28T13:50:08.582Z,22.25
2022-10-28T13:52:41.163Z,22.00
2022-10-28T13:55:14.337Z,21.88
2022-10-28T13:57:46.795Z,21.88
2022-10-28T14:00:20.168Z,21.90
2022-10-28T14:02:58.116Z,21.85
2022-10-28T14:05:47.287Z,21.76
2022-10-28T14:08:39.910Z,21.68
2022-10-28T14:11:11.631Z,21.52
2022-10-28T14:13:50.584Z,21.20
2022-10-28T14:16:30.034Z,21.13
2022-10-28T14:19:02.722Z,21.07
2022-10-28T14:22:00.652Z,20.90
2022-10-28T14:24:39.071Z,20.93
2022-10-28T14:27:06.527Z,20.89
2022-10-28T14:29:55.402Z,20.86
2022-10-28T14:32:31.491Z,20.87
2022-10-28T14:35:10.455Z,20.77
2022-10-28T14:37:43.644Z,20.72
2022-10-28T14:40:24.590Z,20.56
2022-10-28T14:43:06.630Z,20.48
2022-10-28T14:45:59.540Z,20.39
2022-10-28T14:48:40.365Z,20.36
2022-10-28T14:51:14.733Z,20.25
2022-10-28T14:53:43.541Z,20.23
2022-10-28T14:56:20.263Z,20.14
2022-10-28T14:58:48.164Z,20.13
2022-10-28T15:01:18.377Z,20.06
2022-10-28T15:03:48.034Z,20.07
2022-10-28T15:06:46.776Z,20.04
2022-10-28T15:09:28.906Z,20.00
2022-10-28T15:12:02.030Z,19.98
2022-10-28T15:14:45.648Z,19.95
2022-10-28T15:17:17.826Z,19.89
2022-10-28T15:19:47.874Z,19.85
2022-10-28T15:22:30.740Z,19.73
2022-10-28T15:25:05.890Z,19.73
2022-10-28T15:27:38.813Z,19.71
2022-10-28T15:30:20.717Z,19.64
2022-10-28T15:32:48.018Z,19.62
2022-10-28T15:35:45.269Z,19.58
2022-10-28T15:38:21.202Z,19.53
2022-10-28T15:40:49.495Z,19.42
2022-10-28T15:43:28.066Z,19.31
2022-10-28T15:46:09.630Z,19.27
2022-10-28T15:48:37.698Z,19.19
2022-10-28T15:51:18.363Z,19.06
2022-10-28T15:53:46.996Z,18.89
2022-10-28T15:56:14.041Z,18.73
2022-10-28T15:58:43.135Z,18.69
2022-10-28T16:01:39.884Z,18.63
2022-10-28T16:04:39.418Z,18.54
2022-10-28T16:07:08.024Z,18.37
2022-10-28T16:09:42.443Z,18.27
2022-10-28T16:12:16.335Z,18.16
2022-10-28T16:14:48.657Z,18.07
2022-10-28T16:17:23.109Z,17.95
2022-10-28T16:19:54.821Z,17.87
2022-10-28T16:22:24.869Z,17.80
2022-10-28T16:24:53.906Z,17.73
2022-10-28T16:27:23.632Z,17.65
2022-10-28T16:29:51.231Z,17.62
2022-10-28T16:32:35.325Z,17.58
2022-10-28T16:35:03.963Z,17.57
2022-10-28T16:37:34.163Z,17.53
2022-10-28T16:40:01.380Z,17.45
2022-10-28T16:42:28.518Z,17.35
2022-10-28T16:44:55.729Z,17.31
2022-10-28T16:47:26.608Z,17.29
2022-10-28T16:49:57.318Z,17.27
2022-10-28T16:52:30.172Z,17.24
2022-10-28T16:54:57.918Z,17.21
2022-10-28T16:57:26.052Z,17.16
2022-10-28T16:59:53.895Z,17.13
2022-10-28T17:02:36.191Z,17.11
2022-10-28T17:05:05.048Z,17.06
2022-10-28T17:07:32.177Z,16.94
2022-10-28T17:09:59.299Z,16.85
2022-10-28T17:12:27.523Z,16.77
2022-10-28T17:14:54.720Z,16.67
2022-10-28T17:17:21.828Z,16.60
2022-10-28T17:19:49.015Z,16.51
2022-10-28T17:22:16.148Z,16.44
2022-10-28T17:24:43.276Z,16.32
2022-10-28T17:27:10.593Z,16.26
2022-10-28T17:29:38.689Z,16.19
2022-10-28T17:32:09.489Z,16.19
2022-10-28T17:34:36.905Z,16.19
2022-10-28T17:37:04.506Z,16.15
2022-10-28T17:39:31.786Z,16.08
2022-10-28T17:41:59.228Z,15.98
2022-10-28T17:44:26.370Z,15.93
2022-10-28T17:46:53.486Z,15.90
2022-10-28T17:49:20.635Z,15.87
2022-10-28T17:51:47.865Z,15.82
2022-10-28T17:54:15.031Z,15.82
2022-10-28T17:56:42.443Z,15.78
2022-10-28T17:59:09.653Z,15.73
2022-10-28T18:01:36.904Z,15.65
2022-10-28T18:04:05.978Z,15.59
2022-10-28T18:06:33.203Z,15.59
2022-10-28T18:09:00.316Z,15.62
2022-10-28T18:11:27.532Z,15.59
2022-10-28T18:13:56.252Z,15.58
2022-10-28T18:16:27.509Z,15.57
2022-10-28T18:18:55.428Z,15.57
2022-10-28T18:21:23.247Z,15.58
2022-10-28T18:23:54.187Z,15.54
2022-10-28T18:26:21.405Z,15.55
2022-10-28T18:28:49.070Z,15.50
2022-10-28T18:31:18.813Z,15.38
2022-10-28T18:33:46.961Z,15.34
2022-10-28T18:36:35.479Z,15.29
2022-10-28T18:39:06.699Z,15.21
2022-10-28T18:41:37.972Z,15.16
2022-10-28T18:44:05.746Z,15.09
2022-10-28T18:46:38.041Z,15.01
2022-10-28T18:49:05.463Z,15.04
2022-10-28T18:51:34.100Z,15.02
2022-10-28T18:54:01.624Z,14.98
2022-10-28T18:56:29.615Z,14.97
2022-10-28T18:58:58.321Z,14.91
2022-10-28T19:01:28.119Z,14.83
2022-10-28T19:04:05.346Z,14.76
2022-10-28T19:06:34.084Z,14.69
2022-10-28T19:09:03.933Z,14.64
2022-10-28T19:11:32.676Z,14.63
2022-10-28T19:14:02.067Z,14.58
2022-10-28T19:16:31.271Z,14.51
2022-10-28T19:18:59.891Z,14.44
2022-10-28T19:21:28.221Z,14.43
2022-10-28T19:23:55.500Z,14.36
2022-10-28T19:26:23.099Z,14.30
2022-10-28T19:28:51.446Z,14.27
2022-10-28T19:31:21.774Z,14.17
2022-10-28T19:33:49.228Z,14.13
2022-10-28T19:36:25.310Z,14.08
2022-10-28T19:38:56.017Z,13.99
2022-10-28T19:41:28.543Z,13.96
2022-10-28T19:43:58.712Z,13.99
2022-10-28T19:46:28.005Z,14.00
2022-10-28T19:48:58.217Z,14.03
2022-10-28T19:51:28.508Z,14.00
2022-10-28T19:53:58.306Z,13.95
2022-10-28T19:56:26.582Z,13.92
2022-10-28T19:58:58.433Z,13.91
2022-10-28T20:01:28.180Z,13.87
2022-10-28T20:03:55.799Z,13.84
2022-10-28T20:06:26.164Z,13.82
2022-10-28T20:08:53.624Z,13.81
2022-10-28T20:11:27.071Z,13.74
2022-10-28T20:14:00.925Z,13.73
2022-10-28T20:16:28.942Z,13.69
2022-10-28T20:18:57.567Z,13.64
2022-10-28T20:21:27.655Z,13.61
2022-10-28T20:23:56.814Z,13.58
2022-10-28T20:26:26.109Z,13.55
2022-10-28T20:28:53.589Z,13.53
2022-10-28T20:31:23.151Z,13.50
2022-10-28T20:33:55.344Z,13.48
2022-10-28T20:36:30.616Z,13.49
2022-10-28T20:39:10.061Z,13.50
2022-10-28T20:41:38.662Z,13.50
2022-10-28T20:44:06.847Z,13.49
2022-10-28T20:46:34.402Z,13.46
2022-10-28T20:49:02.242Z,13.43
2022-10-28T20:51:31.157Z,13.43
2022-10-28T20:53:58.877Z,13.38
2022-10-28T20:56:30.908Z,13.31
2022-10-28T20:58:58.491Z,13.30
2022-10-28T21:01:37.636Z,13.29
2022-10-28T21:04:07.666Z,13.32
2022-10-28T21:06:36.853Z,13.26
2022-10-28T21:09:05.194Z,13.26
2022-10-28T21:11:32.568Z,13.22
2022-10-28T21:14:01.285Z,13.12
2022-10-28T21:16:29.519Z,13.04
2022-10-28T21:18:56.934Z,13.08
2022-10-28T21:21:25.401Z,13.14
2022-10-28T21:23:52.739Z,13.07
2022-10-28T21:26:20.192Z,13.05
2022-10-28T21:28:51.998Z,13.06
2022-10-28T21:31:20.647Z,13.01
2022-10-28T21:36:21.353Z,12.96
2022-10-28T21:38:48.576Z,12.93
2022-10-28T21:41:20.285Z,12.82
2022-10-28T21:43:49.574Z,12.80
2022-10-28T21:46:18.079Z,12.81
2022-10-28T21:48:45.489Z,12.72
2022-10-28T21:51:15.125Z,12.67
2022-10-28T21:53:44.371Z,12.63
2022-10-28T21:56:18.575Z,12.60
2022-10-28T21:58:50.676Z,12.59
2022-10-28T22:01:20.713Z,12.56
2022-10-28T22:03:49.054Z,12.48
2022-10-28T22:06:16.278Z,12.51
2022-10-28T22:08:43.400Z,12.53
2022-10-28T22:11:18.108Z,12.51
2022-10-28T22:13:45.827Z,12.46
2022-10-28T22:16:15.427Z,12.48
2022-10-28T22:18:43.016Z,12.43
2022-10-28T22:21:21.857Z,12.40
2022-10-28T22:23:50.164Z,12.34
2022-10-28T22:26:20.257Z,12.32
2022-10-28T22:28:48.059Z,12.33
2022-10-28T22:31:18.301Z,12.35
2022-10-28T22:36:16.464Z,12.30
2022-10-28T22:38:44.387Z,12.24
2022-10-28T22:41:13.753Z,12.25
2022-10-28T22:43:42.737Z,12.26
2022-10-28T22:46:10.977Z,12.18
2022-10-28T22:48:38.386Z,12.06
2022-10-28T22:51:05.715Z,12.01
2022-10-28T22:53:32.843Z,12.02
2022-10-28T22:56:00.016Z,11.98
2022-10-28T22:58:27.779Z,11.93
2022-10-28T23:01:04.862Z,11.98
2022-10-28T23:03:43.344Z,11.93
2022-10-28T23:06:11.840Z,11.91
2022-10-28T23:08:40.408Z,11.89
2022-10-28T23:11:09.113Z,11.87
2022-10-28T23:16:10.281Z,11.93
2022-10-28T23:18:38.100Z,11.93
2022-10-28T23:21:07.426Z,11.87
2022-10-28T23:23:34.505Z,11.76
2022-10-28T23:26:02.030Z,11.71
2022-10-28T23:28:29.313Z,11.63
2022-10-28T23:31:03.929Z,11.63
2022-10-28T23:33:32.565Z,11.61
2022-10-28T23:36:02.132Z,11.57
2022-10-28T23:38:29.838Z,11.56
2022-10-28T23:41:01.134Z,11.61
2022-10-28T23:43:29.651Z,11.55
2022-10-28T23:45:57.643Z,11.55
2022-10-28T23:48:26.613Z,11.55
2022-10-28T23:50:54.284Z,11.53
2022-10-28T23:53:22.709Z,11.51
2022-10-28T23:55:50.888Z,11.50
2022-10-28T23:58:19.578Z,11.46
